createdAt,value
2016-12-07T00:00:22.471Z,1025.53
2016-12-07T00:00:48.544Z,1025.52
2016-12-07T00:01:14.625Z,1025.53
2016-12-07T00:01:40.717Z,1025.53
2016-12-07T00:02:06.794Z,1025.54
2016-12-07T00:02:32.876Z,1025.57
2016-12-07T00:02:58.972Z,1025.57
2016-12-07T00:03:25.059Z,1025.55
2016-12-07T00:03:51.141Z,1025.56
2016-12-07T00:04:17.233Z,1025.55
2016-12-07T00:04:43.325Z,1025.55
2016-12-07T00:05:09.411Z,1025.53
2016-12-07T00:05:35.489Z,1025.53
2016-12-07T00:06:01.565Z,1025.53
2016-12-07T00:06:27.660Z,1025.51
2016-12-07T00:06:53.743Z,1025.52
2016-12-07T00:07:19.828Z,1025.52
2016-12-07T00:07:45.921Z,1025.51
2016-12-07T00:08:12.008Z,1025.52
2016-12-07T00:08:38.087Z,1025.46
2016-12-07T00:09:04.168Z,1025.52
2016-12-07T00:09:30.260Z,1025.54
2016-12-07T00:09:56.334Z,1025.5
2016-12-07T00:10:22.421Z,1025.5
2016-12-07T00:10:48.499Z,1025.51
2016-12-07T00:11:14.595Z,1025.48
2016-12-07T00:11:40.681Z,1025.48
2016-12-07T00:12:06.760Z,1025.5
2016-12-07T00:12:32.851Z,1025.47
2016-12-07T00:12:58.942Z,1025.5
2016-12-07T00:13:25.024Z,1025.45
2016-12-07T00:13:51.116Z,1025.45
2016-12-07T00:14:17.210Z,1025.46
2016-12-07T00:14:43.295Z,1025.48
2016-12-07T00:15:09.378Z,1025.43
2016-12-07T00:15:35.470Z,1025.49
2016-12-07T00:16:01.550Z,1025.48
2016-12-07T00:16:27.639Z,1025.46
2016-12-07T00:16:53.716Z,1025.48
2016-12-07T00:17:19.803Z,1025.49
2016-12-07T00:17:45.899Z,1025.47
2016-12-07T00:18:11.982Z,1025.5
2016-12-07T00:18:38.068Z,1025.45
2016-12-07T00:19:04.162Z,1025.45
2016-12-07T00:19:30.244Z,1025.46
2016-12-07T00:19:56.319Z,1025.44
2016-12-07T00:20:22.413Z,1025.44
2016-12-07T00:20:48.499Z,1025.39
2016-12-07T00:21:14.580Z,1025.41
2016-12-07T00:21:40.676Z,1025.38
2016-12-07T00:22:06.764Z,1025.4
2016-12-07T00:22:32.936Z,1025.34
2016-12-07T00:22:59.046Z,1025.35
2016-12-07T00:23:25.137Z,1025.34
2016-12-07T00:23:51.217Z,1025.34
2016-12-07T00:24:17.306Z,1025.32
2016-12-07T00:24:43.401Z,1025.3
2016-12-07T00:25:09.482Z,1025.27
2016-12-07T00:25:35.559Z,1025.3
2016-12-07T00:26:01.655Z,1025.28
2016-12-07T00:26:27.736Z,1025.29
2016-12-07T00:26:53.815Z,1025.29
2016-12-07T00:27:19.903Z,1025.25
2016-12-07T00:27:46.286Z,1025.27
2016-12-07T00:28:12.376Z,1025.27
2016-12-07T00:28:38.451Z,1025.26
2016-12-07T00:29:04.538Z,1025.27
2016-12-07T00:29:30.627Z,1025.24
2016-12-07T00:29:56.707Z,1025.25
2016-12-07T00:30:22.785Z,1025.24
2016-12-07T00:30:48.876Z,1025.23
2016-12-07T00:31:14.959Z,1025.27
2016-12-07T00:31:41.040Z,1025.23
2016-12-07T00:32:07.134Z,1025.23
2016-12-07T00:32:33.220Z,1025.27
2016-12-07T00:32:59.308Z,1025.22
2016-12-07T00:33:25.386Z,1025.22
2016-12-07T00:33:51.464Z,1025.23
2016-12-07T00:34:17.561Z,1025.24
2016-12-07T00:34:43.651Z,1025.24
2016-12-07T00:35:09.729Z,1025.22
2016-12-07T00:35:35.826Z,1025.24
2016-12-07T00:36:01.907Z,1025.24
2016-12-07T00:36:27.979Z,1025.23
2016-12-07T00:36:54.076Z,1025.22
2016-12-07T00:37:20.164Z,1025.21
2016-12-07T00:37:46.241Z,1025.21
2016-12-07T00:38:12.324Z,1025.23
2016-12-07T00:38:38.401Z,1025.18
2016-12-07T00:39:04.490Z,1025.2
2016-12-07T00:39:30.576Z,1025.19
2016-12-07T00:39:56.655Z,1025.2
2016-12-07T00:40:22.745Z,1025.19
2016-12-07T00:40:48.842Z,1025.16
2016-12-07T00:41:14.915Z,1025.17
2016-12-07T00:41:41.001Z,1025.16
2016-12-07T00:42:07.097Z,1025.13
2016-12-07T00:42:33.179Z,1025.16
2016-12-07T00:42:59.258Z,1025.15
2016-12-07T00:43:25.348Z,1025.15
2016-12-07T00:43:51.427Z,1025.13
2016-12-07T00:44:17.520Z,1025.14
2016-12-07T00:44:43.599Z,1025.15
2016-12-07T00:45:09.688Z,1025.15
2016-12-07T00:45:35.783Z,1025.12
2016-12-07T00:46:01.864Z,1025.11
2016-12-07T00:46:27.948Z,1025.12
2016-12-07T00:46:54.041Z,1025.14
2016-12-07T00:47:20.123Z,1025.14
2016-12-07T00:47:46.197Z,1025.1
2016-12-07T00:48:12.293Z,1025.13
2016-12-07T00:48:38.375Z,1025.15
2016-12-07T00:49:04.456Z,1025.2
2016-12-07T00:49:30.546Z,1025.18
2016-12-07T00:49:56.630Z,1025.22
2016-12-07T00:50:22.722Z,1025.22
2016-12-07T00:50:48.799Z,1025.23
2016-12-07T00:51:14.879Z,1025.2
2016-12-07T00:51:40.971Z,1025.23
2016-12-07T00:52:07.058Z,1025.22
2016-12-07T00:52:33.135Z,1025.21
2016-12-07T00:52:59.328Z,1025.23
2016-12-07T00:53:25.414Z,1025.24
2016-12-07T00:53:51.511Z,1025.17
2016-12-07T00:54:17.596Z,1025.24
2016-12-07T00:54:43.692Z,1025.25
2016-12-07T00:55:09.773Z,1025.2
2016-12-07T00:55:35.856Z,1025.17
2016-12-07T00:56:01.960Z,1025.22
2016-12-07T00:56:28.051Z,1025.2
2016-12-07T00:56:54.140Z,1025.18
2016-12-07T00:57:20.221Z,1025.15
2016-12-07T00:57:46.306Z,1025.18
2016-12-07T00:58:12.403Z,1025.13
2016-12-07T00:58:38.477Z,1025.16
2016-12-07T00:59:04.586Z,1025.16
2016-12-07T00:59:30.678Z,1025.12
2016-12-07T00:59:56.754Z,1025.16
2016-12-07T01:00:22.835Z,1025.11
2016-12-07T01:00:48.922Z,1025.13
2016-12-07T01:01:15.013Z,1025.12
2016-12-07T01:01:41.101Z,1025.15
2016-12-07T01:02:07.171Z,1025.15
2016-12-07T01:02:33.262Z,1025.1
2016-12-07T01:02:59.352Z,1025.13
2016-12-07T01:03:25.426Z,1025.07
2016-12-07T01:03:51.509Z,1025.08
2016-12-07T01:04:17.600Z,1025.12
2016-12-07T01:04:43.683Z,1025.11
2016-12-07T01:05:09.757Z,1025.09
2016-12-07T01:05:35.878Z,1025.12
2016-12-07T01:06:01.963Z,1025.1
2016-12-07T01:06:28.037Z,1025.07
2016-12-07T01:06:54.131Z,1025.1
2016-12-07T01:07:20.220Z,1025.1
2016-12-07T01:07:46.302Z,1025.1
2016-12-07T01:08:12.393Z,1025.1
2016-12-07T01:08:38.489Z,1025.09
2016-12-07T01:09:04.566Z,1025.1
2016-12-07T01:09:30.674Z,1025.11
2016-12-07T01:09:56.765Z,1025.07
2016-12-07T01:10:22.848Z,1025.04
2016-12-07T01:10:48.935Z,1025.07
2016-12-07T01:11:15.029Z,1025.07
2016-12-07T01:11:41.110Z,1025.09
2016-12-07T01:12:07.205Z,1025.12
2016-12-07T01:12:33.280Z,1025.1
2016-12-07T01:12:59.367Z,1025.12
2016-12-07T01:13:25.460Z,1025.14
2016-12-07T01:13:51.539Z,1025.13
2016-12-07T01:14:17.626Z,1025.16
2016-12-07T01:14:43.718Z,1025.17
2016-12-07T01:15:09.798Z,1025.18
2016-12-07T01:15:35.876Z,1025.21
2016-12-07T01:16:01.973Z,1025.18
2016-12-07T01:16:28.056Z,1025.2
2016-12-07T01:16:54.136Z,1025.19
2016-12-07T01:17:20.230Z,1025.2
2016-12-07T01:17:46.310Z,1025.24
2016-12-07T01:18:12.405Z,1025.22
2016-12-07T01:18:38.482Z,1025.23
2016-12-07T01:19:04.555Z,1025.22
2016-12-07T01:19:30.653Z,1025.25
2016-12-07T01:19:56.738Z,1025.26
2016-12-07T01:20:22.817Z,1025.25
2016-12-07T01:20:48.911Z,1025.24
2016-12-07T01:21:14.998Z,1025.25
2016-12-07T01:21:41.075Z,1025.25
2016-12-07T01:22:07.160Z,1025.24
2016-12-07T01:22:33.253Z,1025.25
2016-12-07T01:22:59.438Z,1025.24
2016-12-07T01:23:25.519Z,1025.23
2016-12-07T01:23:51.597Z,1025.23
2016-12-07T01:24:17.693Z,1025.23
2016-12-07T01:24:43.798Z,1025.25
2016-12-07T01:25:09.875Z,1025.21
2016-12-07T01:25:35.967Z,1025.2
2016-12-07T01:26:02.052Z,1025.13
2016-12-07T01:26:28.126Z,1025.11
2016-12-07T01:26:54.215Z,1025.14
2016-12-07T01:27:20.307Z,1025.15
2016-12-07T01:27:46.387Z,1025.14
2016-12-07T01:28:12.771Z,1025.09
2016-12-07T01:28:38.854Z,1025.11
2016-12-07T01:29:04.945Z,1025.06
2016-12-07T01:29:31.036Z,1025.09
2016-12-07T01:29:57.114Z,1025.07
2016-12-07T01:30:23.202Z,1025.08
2016-12-07T01:30:49.291Z,1025.07
2016-12-07T01:31:15.369Z,1025.08
2016-12-07T01:31:41.450Z,1025.07
2016-12-07T01:32:07.541Z,1025.1
2016-12-07T01:32:33.622Z,1025.12
2016-12-07T01:32:59.695Z,1025.06
2016-12-07T01:33:25.793Z,1025.13
2016-12-07T01:33:51.878Z,1025.11
2016-12-07T01:34:17.970Z,1025.13
2016-12-07T01:34:44.050Z,1025.15
2016-12-07T01:35:10.132Z,1025.12
2016-12-07T01:35:36.219Z,1025.2
2016-12-07T01:36:02.322Z,1025.19
2016-12-07T01:36:28.421Z,1025.16
2016-12-07T01:36:54.516Z,1025.18
2016-12-07T01:37:20.602Z,1025.19
2016-12-07T01:37:46.679Z,1025.19
2016-12-07T01:38:12.771Z,1025.19
2016-12-07T01:38:38.857Z,1025.21
2016-12-07T01:39:04.928Z,1025.23
2016-12-07T01:39:31.015Z,1025.24
2016-12-07T01:39:57.097Z,1025.27
2016-12-07T01:40:23.203Z,1025.24
2016-12-07T01:40:49.310Z,1025.29
2016-12-07T01:41:15.388Z,1025.27
2016-12-07T01:41:41.479Z,1025.26
2016-12-07T01:42:07.564Z,1025.27
2016-12-07T01:42:33.642Z,1025.29
2016-12-07T01:42:59.735Z,1025.33
2016-12-07T01:43:25.825Z,1025.36
2016-12-07T01:43:51.901Z,1025.35
2016-12-07T01:44:17.984Z,1025.34
2016-12-07T01:44:44.074Z,1025.34
2016-12-07T01:45:10.149Z,1025.35
2016-12-07T01:45:36.234Z,1025.32
2016-12-07T01:46:02.314Z,1025.32
2016-12-07T01:46:28.405Z,1025.32
2016-12-07T01:46:54.499Z,1025.32
2016-12-07T01:47:20.572Z,1025.29
2016-12-07T01:47:46.659Z,1025.27
2016-12-07T01:48:12.752Z,1025.26
2016-12-07T01:48:38.829Z,1025.32
2016-12-07T01:49:04.913Z,1025.32
2016-12-07T01:49:31.057Z,1025.31
2016-12-07T01:49:57.138Z,1025.32
2016-12-07T01:50:23.218Z,1025.32
2016-12-07T01:50:49.314Z,1025.35
2016-12-07T01:51:15.397Z,1025.38
2016-12-07T01:51:41.472Z,1025.39
2016-12-07T01:52:07.567Z,1025.41
2016-12-07T01:52:33.653Z,1025.41
2016-12-07T01:52:59.730Z,1025.43
2016-12-07T01:53:25.921Z,1025.46
2016-12-07T01:53:52.013Z,1025.42
2016-12-07T01:54:18.082Z,1025.42
2016-12-07T01:54:44.171Z,1025.45
2016-12-07T01:55:10.261Z,1025.42
2016-12-07T01:55:36.338Z,1025.42
2016-12-07T01:56:02.419Z,1025.43
2016-12-07T01:56:28.504Z,1025.4
2016-12-07T01:56:54.595Z,1025.37
2016-12-07T01:57:20.689Z,1025.39
2016-12-07T01:57:46.759Z,1025.37
2016-12-07T01:58:12.850Z,1025.37
2016-12-07T01:58:38.944Z,1025.35
2016-12-07T01:59:05.024Z,1025.37
2016-12-07T01:59:31.106Z,1025.36
2016-12-07T01:59:57.196Z,1025.34
2016-12-07T02:00:23.272Z,1025.36
2016-12-07T02:00:49.350Z,1025.36
2016-12-07T02:01:15.447Z,1025.38
2016-12-07T02:01:41.531Z,1025.39
2016-12-07T02:02:07.623Z,1025.4
2016-12-07T02:02:33.696Z,1025.39
2016-12-07T02:02:59.780Z,1025.39
2016-12-07T02:03:25.871Z,1025.43
2016-12-07T02:03:51.948Z,1025.47
2016-12-07T02:04:18.024Z,1025.46
2016-12-07T02:04:44.120Z,1025.49
2016-12-07T02:05:10.202Z,1025.48
2016-12-07T02:05:36.278Z,1025.5
2016-12-07T02:06:02.366Z,1025.51
2016-12-07T02:06:28.452Z,1025.49
2016-12-07T02:06:54.528Z,1025.5
2016-12-07T02:07:20.619Z,1025.51
2016-12-07T02:07:46.692Z,1025.49
2016-12-07T02:08:12.787Z,1025.49
2016-12-07T02:08:38.873Z,1025.49
2016-12-07T02:09:04.945Z,1025.46
2016-12-07T02:09:31.042Z,1025.46
2016-12-07T02:09:57.127Z,1025.45
2016-12-07T02:10:23.209Z,1025.48
2016-12-07T02:10:49.299Z,1025.41
2016-12-07T02:11:15.389Z,1025.41
2016-12-07T02:11:41.461Z,1025.36
2016-12-07T02:12:07.544Z,1025.4
2016-12-07T02:12:33.639Z,1025.34
2016-12-07T02:12:59.741Z,1025.37
2016-12-07T02:13:25.858Z,1025.36
2016-12-07T02:13:51.937Z,1025.33
2016-12-07T02:14:18.027Z,1025.32
2016-12-07T02:14:44.117Z,1025.3
2016-12-07T02:15:10.191Z,1025.24
2016-12-07T02:15:36.280Z,1025.26
2016-12-07T02:16:02.373Z,1025.29
2016-12-07T02:16:28.450Z,1025.29
2016-12-07T02:16:54.532Z,1025.28
2016-12-07T02:17:20.627Z,1025.28
2016-12-07T02:17:46.704Z,1025.27
2016-12-07T02:18:12.781Z,1025.29
2016-12-07T02:18:38.890Z,1025.26
2016-12-07T02:19:04.977Z,1025.26
2016-12-07T02:19:31.072Z,1025.27
2016-12-07T02:19:57.145Z,1025.22
2016-12-07T02:20:23.230Z,1025.29
2016-12-07T02:20:49.322Z,1025.26
2016-12-07T02:21:15.396Z,1025.29
2016-12-07T02:21:41.472Z,1025.33
2016-12-07T02:22:07.565Z,1025.3
2016-12-07T02:22:33.648Z,1025.29
2016-12-07T02:22:59.726Z,1025.33
2016-12-07T02:23:25.820Z,1025.29
2016-12-07T02:23:51.906Z,1025.3
2016-12-07T02:24:17.996Z,1025.28
2016-12-07T02:24:44.077Z,1025.29
2016-12-07T02:25:10.148Z,1025.25
2016-12-07T02:25:36.247Z,1025.28
2016-12-07T02:26:02.331Z,1025.26
2016-12-07T02:26:28.409Z,1025.24
2016-12-07T02:26:54.501Z,1025.25
2016-12-07T02:27:20.586Z,1025.21
2016-12-07T02:27:46.657Z,1025.19
2016-12-07T02:28:12.747Z,1025.19
2016-12-07T02:28:38.840Z,1025.23
2016-12-07T02:29:04.911Z,1025.19
2016-12-07T02:29:31.001Z,1025.22
2016-12-07T02:29:57.083Z,1025.24
2016-12-07T02:30:23.179Z,1025.23
2016-12-07T02:30:49.269Z,1025.26
2016-12-07T02:31:15.340Z,1025.23
2016-12-07T02:31:41.427Z,1025.3
2016-12-07T02:32:07.520Z,1025.27
2016-12-07T02:32:33.586Z,1025.28
2016-12-07T02:32:59.671Z,1025.26
2016-12-07T02:33:25.770Z,1025.26
2016-12-07T02:33:51.849Z,1025.28
2016-12-07T02:34:17.930Z,1025.23
2016-12-07T02:34:44.029Z,1025.27
2016-12-07T02:35:10.112Z,1025.26
2016-12-07T02:35:36.187Z,1025.22
2016-12-07T02:36:02.283Z,1025.21
2016-12-07T02:36:28.371Z,1025.2
2016-12-07T02:36:54.451Z,1025.19
2016-12-07T02:37:20.543Z,1025.21
2016-12-07T02:37:46.627Z,1025.18
2016-12-07T02:38:12.704Z,1025.2
2016-12-07T02:38:38.795Z,1025.2
2016-12-07T02:39:04.886Z,1025.18
2016-12-07T02:39:30.955Z,1025.17
2016-12-07T02:39:57.041Z,1025.15
2016-12-07T02:40:23.133Z,1025.16
2016-12-07T02:40:49.213Z,1025.14
2016-12-07T02:41:15.300Z,1025.12
2016-12-07T02:41:41.376Z,1025.14
2016-12-07T02:42:07.468Z,1025.09
2016-12-07T02:42:33.559Z,1025.11
2016-12-07T02:42:59.631Z,1025.13
2016-12-07T02:43:25.722Z,1025.14
2016-12-07T02:43:51.813Z,1025.11
2016-12-07T02:44:17.889Z,1025.12
2016-12-07T02:44:43.978Z,1025.12
2016-12-07T02:45:10.072Z,1025.14
2016-12-07T02:45:36.152Z,1025.09
2016-12-07T02:46:02.235Z,1025.12
2016-12-07T02:46:28.323Z,1025.14
2016-12-07T02:46:54.407Z,1025.13
2016-12-07T02:47:20.525Z,1025.16
2016-12-07T02:47:46.600Z,1025.17
2016-12-07T02:48:12.681Z,1025.19
2016-12-07T02:48:38.874Z,1025.17
2016-12-07T02:49:04.959Z,1025.18
2016-12-07T02:49:31.036Z,1025.2
2016-12-07T02:49:57.131Z,1025.22
2016-12-07T02:50:23.217Z,1025.22
2016-12-07T02:50:49.293Z,1025.22
2016-12-07T02:51:15.387Z,1025.26
2016-12-07T02:51:41.473Z,1025.25
2016-12-07T02:52:07.565Z,1025.27
2016-12-07T02:52:33.646Z,1025.24
2016-12-07T02:52:59.722Z,1025.28
2016-12-07T02:53:25.818Z,1025.23
2016-12-07T02:53:51.933Z,1025.23
2016-12-07T02:54:18.015Z,1025.25
2016-12-07T02:54:44.105Z,1025.26
2016-12-07T02:55:10.189Z,1025.26
2016-12-07T02:55:36.264Z,1025.25
2016-12-07T02:56:02.359Z,1025.24
2016-12-07T02:56:28.452Z,1025.25
2016-12-07T02:56:54.523Z,1025.24
2016-12-07T02:57:20.608Z,1025.23
2016-12-07T02:57:46.687Z,1025.24
2016-12-07T02:58:12.777Z,1025.24
2016-12-07T02:58:38.865Z,1025.24
2016-12-07T02:59:04.943Z,1025.21
2016-12-07T02:59:31.036Z,1025.2
2016-12-07T02:59:57.123Z,1025.2
2016-12-07T03:00:23.196Z,1025.18
2016-12-07T03:00:49.283Z,1025.18
2016-12-07T03:01:15.376Z,1025.21
2016-12-07T03:01:41.454Z,1025.2
2016-12-07T03:02:07.537Z,1025.19
2016-12-07T03:02:33.627Z,1025.18
2016-12-07T03:02:59.709Z,1025.21
2016-12-07T03:03:25.804Z,1025.21
2016-12-07T03:03:51.879Z,1025.21
2016-12-07T03:04:17.969Z,1025.26
2016-12-07T03:04:44.055Z,1025.21
2016-12-07T03:05:10.133Z,1025.19
2016-12-07T03:05:36.214Z,1025.2
2016-12-07T03:06:02.307Z,1025.18
2016-12-07T03:06:28.383Z,1025.18
2016-12-07T03:06:54.458Z,1025.19
2016-12-07T03:07:20.579Z,1025.2
2016-12-07T03:07:46.683Z,1025.17
2016-12-07T03:08:12.758Z,1025.17
2016-12-07T03:08:38.849Z,1025.18
2016-12-07T03:09:04.921Z,1025.18
2016-12-07T03:09:31.014Z,1025.2
2016-12-07T03:09:57.095Z,1025.21
2016-12-07T03:10:23.176Z,1025.19
2016-12-07T03:10:49.271Z,1025.2
2016-12-07T03:11:15.348Z,1025.19
2016-12-07T03:11:41.427Z,1025.19
2016-12-07T03:12:07.520Z,1025.2
2016-12-07T03:12:33.605Z,1025.2
2016-12-07T03:12:59.683Z,1025.19
2016-12-07T03:13:25.776Z,1025.2
2016-12-07T03:13:51.868Z,1025.18
2016-12-07T03:14:17.949Z,1025.17
2016-12-07T03:14:44.027Z,1025.15
2016-12-07T03:15:10.101Z,1025.14
2016-12-07T03:15:36.194Z,1025.17
2016-12-07T03:16:02.284Z,1025.14
2016-12-07T03:16:28.360Z,1025.13
2016-12-07T03:16:54.451Z,1025.15
2016-12-07T03:17:20.543Z,1025.11
2016-12-07T03:17:46.618Z,1025.11
2016-12-07T03:18:12.724Z,1025.09
2016-12-07T03:18:38.815Z,1025.08
2016-12-07T03:19:04.990Z,1025.07
2016-12-07T03:19:31.099Z,1025.05
2016-12-07T03:19:57.196Z,1025.1
2016-12-07T03:20:23.275Z,1025.07
2016-12-07T03:20:49.353Z,1025.08
2016-12-07T03:21:15.473Z,1025.06
2016-12-07T03:21:41.557Z,1025.08
2016-12-07T03:22:07.637Z,1025.11
2016-12-07T03:22:33.729Z,1025.14
2016-12-07T03:22:59.816Z,1025.09
2016-12-07T03:23:25.894Z,1025.09
2016-12-07T03:23:51.981Z,1025.09
2016-12-07T03:24:18.072Z,1025.11
2016-12-07T03:24:44.148Z,1025.07
2016-12-07T03:25:10.232Z,1025.13
2016-12-07T03:25:36.311Z,1025.1
2016-12-07T03:26:02.403Z,1025.07
2016-12-07T03:26:28.489Z,1025.07
2016-12-07T03:26:54.573Z,1025.07
2016-12-07T03:27:20.658Z,1025.04
2016-12-07T03:27:46.751Z,1025.06
2016-12-07T03:28:12.821Z,1025.06
2016-12-07T03:28:38.905Z,1025.03
2016-12-07T03:29:04.998Z,1024.98
2016-12-07T03:29:31.081Z,1025
2016-12-07T03:29:57.166Z,1025.02
2016-12-07T03:30:23.260Z,1025.01
2016-12-07T03:30:49.359Z,1025.01
2016-12-07T03:31:15.451Z,1025.02
2016-12-07T03:31:41.525Z,1024.94
2016-12-07T03:32:07.613Z,1024.97
2016-12-07T03:32:33.703Z,1024.96
2016-12-07T03:32:59.782Z,1024.92
2016-12-07T03:33:25.885Z,1024.92
2016-12-07T03:33:51.980Z,1024.95
2016-12-07T03:34:18.055Z,1024.89
2016-12-07T03:34:44.135Z,1024.88
2016-12-07T03:35:10.224Z,1024.88
2016-12-07T03:35:36.305Z,1024.88
2016-12-07T03:36:02.381Z,1024.91
2016-12-07T03:36:28.471Z,1024.86
2016-12-07T03:36:54.555Z,1024.84
2016-12-07T03:37:20.646Z,1024.86
2016-12-07T03:37:46.752Z,1024.84
2016-12-07T03:38:12.824Z,1024.86
2016-12-07T03:38:38.924Z,1024.84
2016-12-07T03:39:05.015Z,1024.86
2016-12-07T03:39:31.104Z,1024.81
2016-12-07T03:39:57.195Z,1024.82
2016-12-07T03:40:23.279Z,1024.85
2016-12-07T03:40:49.354Z,1024.86
2016-12-07T03:41:15.444Z,1024.84
2016-12-07T03:41:41.533Z,1024.86
2016-12-07T03:42:07.615Z,1024.87
2016-12-07T03:42:33.701Z,1024.8
2016-12-07T03:42:59.777Z,1024.85
2016-12-07T03:43:25.868Z,1024.83
2016-12-07T03:43:51.947Z,1024.84
2016-12-07T03:44:18.028Z,1024.82
2016-12-07T03:44:44.121Z,1024.8
2016-12-07T03:45:10.211Z,1024.84
2016-12-07T03:45:36.280Z,1024.82
2016-12-07T03:46:02.387Z,1024.79
2016-12-07T03:46:28.480Z,1024.8
2016-12-07T03:46:54.559Z,1024.82
2016-12-07T03:47:20.640Z,1024.8
2016-12-07T03:47:46.723Z,1024.82
2016-12-07T03:48:12.813Z,1024.77
2016-12-07T03:48:38.904Z,1024.75
2016-12-07T03:49:04.974Z,1024.75
2016-12-07T03:49:31.060Z,1024.77
2016-12-07T03:49:57.149Z,1024.72
2016-12-07T03:50:23.225Z,1024.73
2016-12-07T03:50:49.311Z,1024.74
2016-12-07T03:51:15.398Z,1024.72
2016-12-07T03:51:41.479Z,1024.71
2016-12-07T03:52:07.562Z,1024.73
2016-12-07T03:52:33.653Z,1024.75
2016-12-07T03:52:59.738Z,1024.74
2016-12-07T03:53:25.829Z,1024.76
2016-12-07T03:53:51.907Z,1024.74
2016-12-07T03:54:17.983Z,1024.76
2016-12-07T03:54:44.100Z,1024.79
2016-12-07T03:55:10.181Z,1024.78
2016-12-07T03:55:36.261Z,1024.78
2016-12-07T03:56:02.359Z,1024.75
2016-12-07T03:56:28.468Z,1024.74
2016-12-07T03:56:54.544Z,1024.77
2016-12-07T03:57:20.636Z,1024.79
2016-12-07T03:57:46.720Z,1024.77
2016-12-07T03:58:12.799Z,1024.77
2016-12-07T03:58:38.886Z,1024.75
2016-12-07T03:59:04.959Z,1024.72
2016-12-07T03:59:31.055Z,1024.77
2016-12-07T03:59:57.140Z,1024.72
2016-12-07T04:00:23.220Z,1024.76
2016-12-07T04:00:49.311Z,1024.75
2016-12-07T04:01:15.391Z,1024.76
2016-12-07T04:01:41.469Z,1024.73
2016-12-07T04:02:07.561Z,1024.76
2016-12-07T04:02:33.648Z,1024.74
2016-12-07T04:02:59.722Z,1024.7
2016-12-07T04:03:25.805Z,1024.73
2016-12-07T04:03:51.893Z,1024.72
2016-12-07T04:04:17.971Z,1024.7
2016-12-07T04:04:44.056Z,1024.73
2016-12-07T04:05:10.147Z,1024.69
2016-12-07T04:05:36.229Z,1024.71
2016-12-07T04:06:02.306Z,1024.66
2016-12-07T04:06:28.398Z,1024.66
2016-12-07T04:06:54.483Z,1024.64
2016-12-07T04:07:20.559Z,1024.66
2016-12-07T04:07:46.651Z,1024.61
2016-12-07T04:08:12.739Z,1024.63
2016-12-07T04:08:38.814Z,1024.62
2016-12-07T04:09:04.904Z,1024.59
2016-12-07T04:09:30.995Z,1024.61
2016-12-07T04:09:57.077Z,1024.59
2016-12-07T04:10:23.160Z,1024.57
2016-12-07T04:10:49.232Z,1024.56
2016-12-07T04:11:15.323Z,1024.59
2016-12-07T04:11:41.409Z,1024.58
2016-12-07T04:12:07.488Z,1024.49
2016-12-07T04:12:33.574Z,1024.49
2016-12-07T04:12:59.667Z,1024.52
2016-12-07T04:13:25.736Z,1024.5
2016-12-07T04:13:51.816Z,1024.5
2016-12-07T04:14:17.908Z,1024.48
2016-12-07T04:14:43.986Z,1024.49
2016-12-07T04:15:10.071Z,1024.43
2016-12-07T04:15:36.149Z,1024.46
2016-12-07T04:16:02.258Z,1024.48
2016-12-07T04:16:28.350Z,1024.45
2016-12-07T04:16:54.424Z,1024.46
2016-12-07T04:17:20.509Z,1024.47
2016-12-07T04:17:46.602Z,1024.44
2016-12-07T04:18:12.679Z,1024.45
2016-12-07T04:18:38.758Z,1024.45
2016-12-07T04:19:04.851Z,1024.44
2016-12-07T04:19:30.933Z,1024.44
2016-12-07T04:19:57.009Z,1024.42
2016-12-07T04:20:23.097Z,1024.41
2016-12-07T04:20:49.184Z,1024.43
2016-12-07T04:21:15.276Z,1024.46
2016-12-07T04:21:41.352Z,1024.44
2016-12-07T04:22:07.430Z,1024.41
2016-12-07T04:22:33.523Z,1024.44
2016-12-07T04:22:59.602Z,1024.45
2016-12-07T04:23:25.680Z,1024.45
2016-12-07T04:23:51.780Z,1024.44
2016-12-07T04:24:17.856Z,1024.38
2016-12-07T04:24:43.931Z,1024.4
2016-12-07T04:25:10.021Z,1024.44
2016-12-07T04:25:36.109Z,1024.41
2016-12-07T04:26:02.187Z,1024.4
2016-12-07T04:26:28.275Z,1024.39
2016-12-07T04:26:54.352Z,1024.36
2016-12-07T04:27:20.449Z,1024.35
2016-12-07T04:27:46.532Z,1024.36
2016-12-07T04:28:12.608Z,1024.3
2016-12-07T04:28:38.702Z,1024.31
2016-12-07T04:29:04.789Z,1024.33
2016-12-07T04:29:30.867Z,1024.34
2016-12-07T04:29:56.981Z,1024.33
2016-12-07T04:30:23.102Z,1024.36
2016-12-07T04:30:49.175Z,1024.38
2016-12-07T04:31:15.262Z,1024.36
2016-12-07T04:31:41.350Z,1024.31
2016-12-07T04:32:07.427Z,1024.36
2016-12-07T04:32:33.520Z,1024.38
2016-12-07T04:32:59.601Z,1024.33
2016-12-07T04:33:25.691Z,1024.35
2016-12-07T04:33:51.780Z,1024.37
2016-12-07T04:34:17.858Z,1024.32
2016-12-07T04:34:43.941Z,1024.32
2016-12-07T04:35:10.033Z,1024.28
2016-12-07T04:35:36.112Z,1024.25
2016-12-07T04:36:02.193Z,1024.31
2016-12-07T04:36:28.284Z,1024.25
2016-12-07T04:36:54.362Z,1024.26
2016-12-07T04:37:20.435Z,1024.26
2016-12-07T04:37:46.522Z,1024.29
2016-12-07T04:38:12.612Z,1024.27
2016-12-07T04:38:38.704Z,1024.25
2016-12-07T04:39:04.781Z,1024.25
2016-12-07T04:39:30.865Z,1024.25
2016-12-07T04:39:56.952Z,1024.24
2016-12-07T04:40:23.032Z,1024.24
2016-12-07T04:40:49.131Z,1024.21
2016-12-07T04:41:15.227Z,1024.25
2016-12-07T04:41:41.312Z,1024.25
2016-12-07T04:42:07.389Z,1024.27
2016-12-07T04:42:33.478Z,1024.26
2016-12-07T04:42:59.576Z,1024.28
2016-12-07T04:43:25.675Z,1024.24
2016-12-07T04:43:51.752Z,1024.24
2016-12-07T04:44:17.828Z,1024.27
2016-12-07T04:44:43.919Z,1024.27
2016-12-07T04:45:09.999Z,1024.27
2016-12-07T04:45:36.077Z,1024.25
2016-12-07T04:46:02.167Z,1024.22
2016-12-07T04:46:28.256Z,1024.26
2016-12-07T04:46:54.333Z,1024.21
2016-12-07T04:47:20.425Z,1024.19
2016-12-07T04:47:46.520Z,1024.23
2016-12-07T04:48:12.595Z,1024.2
2016-12-07T04:48:38.681Z,1024.18
2016-12-07T04:49:04.772Z,1024.19
2016-12-07T04:49:30.853Z,1024.21
2016-12-07T04:49:56.939Z,1024.16
2016-12-07T04:50:23.034Z,1024.19
2016-12-07T04:50:49.117Z,1024.17
2016-12-07T04:51:15.198Z,1024.13
2016-12-07T04:51:41.291Z,1024.14
2016-12-07T04:52:07.369Z,1024.16
2016-12-07T04:52:33.445Z,1024.13
2016-12-07T04:52:59.539Z,1024.18
2016-12-07T04:53:25.628Z,1024.18
2016-12-07T04:53:51.707Z,1024.19
2016-12-07T04:54:17.792Z,1024.18
2016-12-07T04:54:43.867Z,1024.19
2016-12-07T04:55:09.959Z,1024.23
2016-12-07T04:55:36.070Z,1024.22
2016-12-07T04:56:02.175Z,1024.21
2016-12-07T04:56:28.262Z,1024.23
2016-12-07T04:56:54.343Z,1024.22
2016-12-07T04:57:20.424Z,1024.21
2016-12-07T04:57:46.512Z,1024.21
2016-12-07T04:58:12.604Z,1024.21
2016-12-07T04:58:38.675Z,1024.21
2016-12-07T04:59:04.763Z,1024.19
2016-12-07T04:59:30.854Z,1024.19
2016-12-07T04:59:56.930Z,1024.2
2016-12-07T05:00:23.023Z,1024.17
2016-12-07T05:00:49.102Z,1024.15
2016-12-07T05:01:15.192Z,1024.19
2016-12-07T05:01:41.279Z,1024.22
2016-12-07T05:02:07.355Z,1024.21
2016-12-07T05:02:33.437Z,1024.2
2016-12-07T05:02:59.528Z,1024.19
2016-12-07T05:03:25.603Z,1024.23
2016-12-07T05:03:51.689Z,1024.17
2016-12-07T05:04:17.777Z,1024.2
2016-12-07T05:04:43.861Z,1024.2
2016-12-07T05:05:09.937Z,1024.23
2016-12-07T05:05:36.025Z,1024.21
2016-12-07T05:06:02.112Z,1024.24
2016-12-07T05:06:28.203Z,1024.21
2016-12-07T05:06:54.283Z,1024.24
2016-12-07T05:07:20.362Z,1024.2
2016-12-07T05:07:46.455Z,1024.24
2016-12-07T05:08:12.532Z,1024.25
2016-12-07T05:08:38.609Z,1024.23
2016-12-07T05:09:04.704Z,1024.23
2016-12-07T05:09:30.788Z,1024.2
2016-12-07T05:09:56.862Z,1024.22
2016-12-07T05:10:22.958Z,1024.18
2016-12-07T05:10:49.042Z,1024.21
2016-12-07T05:11:15.133Z,1024.22
2016-12-07T05:11:41.210Z,1024.18
2016-12-07T05:12:07.292Z,1024.18
2016-12-07T05:12:33.384Z,1024.19
2016-12-07T05:12:59.469Z,1024.19
2016-12-07T05:13:25.546Z,1024.2
2016-12-07T05:13:51.637Z,1024.18
2016-12-07T05:14:17.719Z,1024.18
2016-12-07T05:14:43.796Z,1024.16
2016-12-07T05:15:09.884Z,1024.15
2016-12-07T05:15:35.995Z,1024.13
2016-12-07T05:16:02.067Z,1024.14
2016-12-07T05:16:28.156Z,1024.17
2016-12-07T05:16:54.240Z,1024.11